Station info - map view · info · telemetry · weather · raw · status · beacons · messages · bulletins · browse · moving · my account
Callsign, ship name or locator: Clear       
It is possible to search using wildcards (*?) after a prefix. Example: OH*
APRS station AG7FW-9 - show graphs
Map loading...
Mic-E message: In service
Location: 45°50.29' N 122°52.87' W - locator CN85NU41GD - show map - static map
2.0 miles Northwest bearing 311° from Warren, Columbia County, Oregon, United States [?]
4.0 miles Southwest bearing 244° from Saint Helens, Columbia County, Oregon, United States
17.4 miles Northwest bearing 323° from Vancouver, Clark County, Washington, United States
23.9 miles Northwest bearing 336° from Portland, Multnomah County, Oregon, United States
Last position: 2018-12-01 18:39:26 EST (8d 9h15m ago)
2018-12-01 15:39:26 PST local time at Warren, United States [?]
Altitude: 335 ft
Course: 203°
Speed: 4 MPH
Device: Kenwood: TM-D710 (rig)
Last path: AG7FW-9>T5UPRY via WIDE1-1,WIDE2-1,qAR,N7BDW-10 (good)
Positions stored: 4479
Stations near current position of AG7FW-9 - show more
callsign distance last heard - EST      callsign distance last heard - EST
KI7SPU-9174.3 yards 104°2018-12-09 18:09:22 N6ZZY-101.8 miles 183°2018-12-05 13:39:01
K7IW-52.2 miles 66°2018-12-09 23:21:39 K7IW-72.2 miles 66°2018-12-02 23:23:32
N6ZZY-22.2 miles 184°2018-11-30 22:09:24 N6ZZY2.2 miles 184°2018-12-10 03:54:04
N6ZZY-152.2 miles 185°2018-11-22 21:25:23 N6ZZY-92.3 miles 181°2018-12-05 14:46:27
KI7GSG2.7 miles 70°2018-12-08 17:08:01 KI7HML-93.1 miles 59°2018-12-09 17:55:54
EW96373.2 miles 70°2018-12-10 03:47:06 WH6KO3.2 miles 70°2018-12-10 03:29:45
WH6CWD-73.3 miles 69°2018-12-08 18:48:48 N7CHS-103.9 miles 74°2018-12-10 03:54:38
AA7BG4.1 miles 188°2018-12-10 02:30:17 KC7COL-104.5 miles 72°2018-12-10 03:25:41
AF7ZA-94.8 miles 184°2018-12-04 16:14:16 FW22815.1 miles 253°2018-11-27 20:45:58
N1OND5.2 miles 35°2018-12-10 03:45:11 AG7EX-95.6 miles 176°2018-12-02 19:50:35
Stations which heard AG7FW-9 directly on radio –
callsign pkts first heard - EST last heard longest (tx => rx) longest at - EST
LARCH 4 2018-12-01 16:03:06 2018-12-01 18:30:36 CN85NS > CN85UR 28.2 miles 99° 2018-12-01 18:30:36
KB7WUK 1 2018-12-01 16:13:38 2018-12-01 16:13:38 CN85OO > CN85RN 10.4 miles 102° 2018-12-01 16:13:38
KC6RZW-10 2 2018-12-01 17:07:32 2018-12-01 17:28:51 CN85QJ > CN85QJ 1.7 miles 64° 2018-12-01 17:28:51
REDMTN 1 2018-12-01 18:19:47 2018-12-01 18:19:47 CN85NP > CN95CW 53.4 miles 68° 2018-12-01 18:19:47
N7QME 1 2018-12-01 16:30:45 2018-12-01 16:30:45 CN85QM > CN85QO 5.4 miles 8° 2018-12-01 16:30:45
LOKOUT 1 2018-12-01 16:00:52 2018-12-01 16:00:52 CN85NR > CN85WT 37.4 miles 83° 2018-12-01 16:00:52
RHODY 1 2018-12-01 16:52:49 2018-12-01 16:52:49 CN85RM > CN95BH 35.1 miles 112° 2018-12-01 16:52:49
W7SRA 1 2018-12-01 17:02:38 2018-12-01 17:02:38 CN85RK > CN84KU 47.6 miles 214° 2018-12-01 17:02:38
N7BDW-10 14 2018-12-01 15:28:23 2018-12-01 18:39:26 CN85PM > CN85PR 14.1 miles 353° 2018-12-01 16:27:25
BALDPK 10 2018-12-01 15:31:14 2018-12-01 17:44:25 CN85NU > CN85LJ 30.9 miles 196° 2018-12-01 15:31:14
NA7Q-9 29 2018-12-01 16:16:17 2018-12-01 18:08:21 CN85ON > CN85QL 7.9 miles 133° 2018-12-01 16:16:17
SADDLE 1 2018-12-01 17:00:15 2018-12-01 17:00:15 CN85RK > CN85HN 39.9 miles 281° 2018-12-01 17:00:15
KK7DS-1 3 2018-12-01 17:03:07 2018-12-01 17:06:53 CN85QJ > CN85RL 5.2 miles 41° 2018-12-01 17:06:53
MEISNR 1 2018-12-01 16:35:02 2018-12-01 16:35:02 CN85RM > CN85MX 36.2 miles 327° 2018-12-01 16:35:02
NPLNS 2 2018-12-01 17:43:55 2018-12-01 17:54:38 CN85QK > CN85MP 22.5 miles 308° 2018-12-01 17:43:55
N7QME-3 2 2018-12-01 16:21:51 2018-12-01 16:48:50 CN85QM > CN85QO 6.6 miles 348° 2018-12-01 16:48:50
N6ZZY-2 13 2018-12-01 15:29:55 2018-12-01 18:37:43 CN85PN > CN85NT 20.3 miles 334° 2018-12-01 18:04:23

Only position packets which were originated by the station are shown here. The range statistics show some extra long hops, because some digipeaters do not correctly add themselves to the digipeater path. Please check the raw packets.
About this site
This page shows real-time information collected from the Automatic Position Reporting System Internet network (APRS-IS). APRS is used by amateur (ham) radio operators to transmit real-time position information, weather data, telemetry and messages over the radio. A vehicle equipped with a GPS receiver, a VHF transmitter or HF transceiver and a small computer device called a tracker transmits it's location, speed and course in a small data packet, which is then received by a nearby iGate receiving site which forwards the packet on the Internet. Systems connected to the Internet can send information on the APRS-IS without a radio transmitter, or collect and display information transmitted anywhere in the world.
FAQ · Blog · Discussion group · Linking to aprs.fi · AIS sites · Service status · Database statistics · Advertising on aprs.fi · Technical details · API · Change log · Planned changes · Credits and thanks · Terms Of Service · iPhone/iPad APRS